地図

経路データ

SID SEASON NUMBER BASIN SUBBASIN NAME ISO_TIME NATURE LAT LON WMO_WIND WMO_PRES WMO_AGENCY TRACK_TYPE DIST2LAND LANDFALL IFLAG USA_AGENCY USA_ATCF_ID USA_LAT USA_LON USA_RECORD USA_STATUS USA_WIND USA_PRES USA_SSHS USA_R34_NE USA_R34_SE USA_R34_SW USA_R34_NW USA_R50_NE USA_R50_SE USA_R50_SW USA_R50_NW USA_R64_NE USA_R64_SE USA_R64_SW USA_R64_NW USA_POCI USA_ROCI USA_RMW USA_EYE TOKYO_LAT TOKYO_LON TOKYO_GRADE TOKYO_WIND TOKYO_PRES TOKYO_R50_DIR TOKYO_R50_LONG TOKYO_R50_SHORT TOKYO_R30_DIR TOKYO_R30_LONG TOKYO_R30_SHORT TOKYO_LAND CMA_LAT CMA_LON CMA_CAT CMA_WIND CMA_PRES HKO_LAT HKO_LON HKO_CAT HKO_WIND HKO_PRES NEWDELHI_LAT NEWDELHI_LON NEWDELHI_GRADE NEWDELHI_WIND NEWDELHI_PRES NEWDELHI_CI NEWDELHI_DP NEWDELHI_POCI REUNION_LAT REUNION_LON REUNION_TYPE REUNION_WIND REUNION_PRES REUNION_TNUM REUNION_CI REUNION_RMW REUNION_R34_NE REUNION_R34_SE REUNION_R34_SW REUNION_R34_NW REUNION_R50_NE REUNION_R50_SE REUNION_R50_SW REUNION_R50_NW REUNION_R64_NE REUNION_R64_SE REUNION_R64_SW REUNION_R64_NW BOM_LAT BOM_LON BOM_TYPE BOM_WIND BOM_PRES BOM_TNUM BOM_CI BOM_RMW BOM_R34_NE BOM_R34_SE BOM_R34_SW BOM_R34_NW BOM_R50_NE BOM_R50_SE BOM_R50_SW BOM_R50_NW BOM_R64_NE BOM_R64_SE BOM_R64_SW BOM_R64_NW BOM_ROCI BOM_POCI BOM_EYE BOM_POS_METHOD BOM_PRES_METHOD NADI_LAT NADI_LON NADI_CAT NADI_WIND NADI_PRES WELLINGTON_LAT WELLINGTON_LON WELLINGTON_WIND WELLINGTON_PRES DS824_LAT DS824_LON DS824_STAGE DS824_WIND DS824_PRES TD9636_LAT TD9636_LON TD9636_STAGE TD9636_WIND TD9636_PRES TD9635_LAT TD9635_LON TD9635_WIND TD9635_PRES TD9635_ROCI NEUMANN_LAT NEUMANN_LON NEUMANN_CLASS NEUMANN_WIND NEUMANN_PRES MLC_LAT MLC_LON MLC_CLASS MLC_WIND MLC_PRES USA_GUST BOM_GUST BOM_GUST_PER REUNION_GUST REUNION_GUST_PER USA_SEAHGT USA_SEARAD_NE USA_SEARAD_SE USA_SEARAD_SW USA_SEARAD_NW STORM_SPEED STORM_DIR
1886091S12065 1886 4 SI MM NOT_NAMED 1886-04-01 06:00:00 NR -12.2000 64.5000 reunion main 1143 1114 _____O________ -1 -12.2000 64.5000 99 9.90000 6 258
1886091S12065 1886 4 SI MM NOT_NAMED 1886-04-01 09:00:00 NR -12.2658 64.1864 main 1114 1095 _____P________ -1 -12.2658 64.1864 99 6 258
1886091S12065 1886 4 SI MM NOT_NAMED 1886-04-01 12:00:00 NR -12.3310 63.8741 main 1095 1067 _____P________ -1 -12.3310 63.8741 99 6 258
1886091S12065 1886 4 SI MM NOT_NAMED 1886-04-01 15:00:00 NR -12.3954 63.5642 main 1067 1039 _____P________ -1 -12.3954 63.5642 99 6 258
1886091S12065 1886 4 SI MM NOT_NAMED 1886-04-01 18:00:00 NR -12.4589 63.2582 main 1039 1021 _____P________ -1 -12.4589 63.2582 99 6 258
1886091S12065 1886 4 SI MM NOT_NAMED 1886-04-01 21:00:00 NR -12.5213 62.9574 main 1021 994 _____P________ -1 -12.5213 62.9574 99 6 258
1886091S12065 1886 4 SI MM NOT_NAMED 1886-04-02 00:00:00 NR -12.5824 62.6632 main 994 977 _____P________ -1 -12.5824 62.6632 99 6 258
1886091S12065 1886 4 SI MM NOT_NAMED 1886-04-02 03:00:00 NR -12.6420 62.3770 main 977 951 _____P________ -1 -12.6420 62.3770 99 6 258
1886091S12065 1886 4 SI MM NOT_NAMED 1886-04-02 06:00:00 NR -12.7000 62.1000 reunion main 951 926 _____O________ -1 -12.7000 62.1000 99 9.90000 5 258
1886091S12065 1886 4 SI MM NOT_NAMED 1886-04-02 09:00:00 NR -12.7564 61.8331 main 926 916 _____P________ -1 -12.7564 61.8331 99 5 258
1886091S12065 1886 4 SI MM NOT_NAMED 1886-04-02 12:00:00 NR -12.8122 61.5749 main 916 892 _____P________ -1 -12.8122 61.5749 99 5 257
1886091S12065 1886 4 SI MM NOT_NAMED 1886-04-02 15:00:00 NR -12.8685 61.3235 main 892 883 _____P________ -1 -12.8685 61.3235 99 5 257
1886091S12065 1886 4 SI MM NOT_NAMED 1886-04-02 18:00:00 NR -12.9267 61.0769 main 883 860 _____P________ -1 -12.9267 61.0769 99 5 256
1886091S12065 1886 4 SI MM NOT_NAMED 1886-04-02 21:00:00 NR -12.9877 60.8332 main 860 852 _____P________ -1 -12.9877 60.8332 99 5 255
1886091S12065 1886 4 SI MM NOT_NAMED 1886-04-03 00:00:00 NR -13.0529 60.5905 main 842 834 _____P________ -1 -13.0529 60.5905 99 5 254
1886091S12065 1886 4 SI MM NOT_NAMED 1886-04-03 03:00:00 NR -13.1232 60.3467 main 830 813 _____P________ -1 -13.1232 60.3467 99 5 253
1886091S12065 1886 4 SI MM NOT_NAMED 1886-04-03 06:00:00 NR -13.2000 60.1000 reunion main 813 793 _____O________ -1 -13.2000 60.1000 99 9.90000 5 252
1886091S12065 1886 4 SI MM NOT_NAMED 1886-04-03 09:00:00 NR -13.2881 59.8251 main 793 776 _____P________ -1 -13.2881 59.8251 99 6 251
1886091S12065 1886 4 SI MM NOT_NAMED 1886-04-03 12:00:00 NR -13.3827 59.5459 main 773 757 _____P________ -1 -13.3827 59.5459 99 6 250
1886091S12065 1886 4 SI MM NOT_NAMED 1886-04-03 15:00:00 NR -13.4823 59.2664 main 757 740 _____P________ -1 -13.4823 59.2664 99 6 249
1886091S12065 1886 4 SI MM NOT_NAMED 1886-04-03 18:00:00 NR -13.5854 58.9904 main 740 724 _____P________ -1 -13.5854 58.9904 99 6 249
1886091S12065 1886 4 SI MM NOT_NAMED 1886-04-03 21:00:00 NR -13.6902 58.7219 main 724 710 _____P________ -1 -13.6902 58.7219 99 6 248
1886091S12065 1886 4 SI MM NOT_NAMED 1886-04-04 00:00:00 NR -13.7953 58.4647 main 710 695 _____P________ -1 -13.7953 58.4647 99 5 247
1886091S12065 1886 4 SI MM NOT_NAMED 1886-04-04 03:00:00 NR -13.8991 58.2227 main 695 683 _____P________ -1 -13.8991 58.2227 99 5 246
1886091S12065 1886 4 SI MM NOT_NAMED 1886-04-04 06:00:00 NR -14.0000 58.0000 reunion main 683 671 _____O________ -1 -14.0000 58.0000 99 9.90000 4 244
1886091S12065 1886 4 SI MM NOT_NAMED 1886-04-04 09:00:00 NR -14.0918 57.8060 main 671 660 _____P________ -1 -14.0918 57.8060 99 4 243
1886091S12065 1886 4 SI MM NOT_NAMED 1886-04-04 12:00:00 NR -14.1816 57.6309 main 660 649 _____P________ -1 -14.1816 57.6309 99 4 241
1886091S12065 1886 4 SI MM NOT_NAMED 1886-04-04 15:00:00 NR -14.2698 57.4714 main 649 638 _____P________ -1 -14.2698 57.4714 99 3 239
1886091S12065 1886 4 SI MM NOT_NAMED 1886-04-04 18:00:00 NR -14.3567 57.3245 main 638 638 _____P________ -1 -14.3567 57.3245 99 3 238
1886091S12065 1886 4 SI MM NOT_NAMED 1886-04-04 21:00:00 NR -14.4429 57.1871 main 638 627 _____P________ -1 -14.4429 57.1871 99 3 237
1886091S12065 1886 4 SI MM NOT_NAMED 1886-04-05 00:00:00 NR -14.5286 57.0559 main 628 617 _____P________ -1 -14.5286 57.0559 99 3 236
1886091S12065 1886 4 SI MM NOT_NAMED 1886-04-05 03:00:00 NR -14.6142 56.9280 main 618 607 _____P________ -1 -14.6142 56.9280 99 3 235
1886091S12065 1886 4 SI MM NOT_NAMED 1886-04-05 06:00:00 NR -14.7000 56.8000 reunion main 608 599 _____O________ -1 -14.7000 56.8000 99 9.90000 3 238
1886091S12065 1886 4 SI MM NOT_NAMED 1886-04-05 09:00:00 NR -14.7797 56.6596 main 599 591 _____P________ -1 -14.7797 56.6596 99 3 239
1886091S12065 1886 4 SI MM NOT_NAMED 1886-04-05 12:00:00 NR -14.8586 56.5215 main 591 591 _____P________ -1 -14.8586 56.5215 99 3 239
1886091S12065 1886 4 SI MM NOT_NAMED 1886-04-05 15:00:00 NR -14.9381 56.3851 main 593 582 _____P________ -1 -14.9381 56.3851 99 3 239
1886091S12065 1886 4 SI MM NOT_NAMED 1886-04-05 18:00:00 NR -15.0198 56.2495 main 587 576 _____P________ -1 -15.0198 56.2495 99 3 238
1886091S12065 1886 4 SI MM NOT_NAMED 1886-04-05 21:00:00 NR -15.1052 56.1140 main 578 570 _____P________ -1 -15.1052 56.1140 99 3 236
1886091S12065 1886 4 SI MM NOT_NAMED 1886-04-06 00:00:00 NR -15.1961 55.9777 main 570 563 _____P________ -1 -15.1961 55.9777 99 3 235
1886091S12065 1886 4 SI MM NOT_NAMED 1886-04-06 03:00:00 NR -15.2938 55.8400 main 566 555 _____P________ -1 -15.2938 55.8400 99 3 233
1886091S12065 1886 4 SI MM NOT_NAMED 1886-04-06 06:00:00 NR -15.4000 55.7000 reunion main 557 546 _____O________ -1 -15.4000 55.7000 99 9.90000 4 231
1886091S12065 1886 4 SI MM NOT_NAMED 1886-04-06 09:00:00 NR -15.5189 55.5490 main 536 525 _____P________ -1 -15.5189 55.5490 99 4 230
1886091S12065 1886 4 SI MM NOT_NAMED 1886-04-06 12:00:00 NR -15.6463 55.3951 main 525 505 _____P________ -1 -15.6463 55.3951 99 4 229
1886091S12065 1886 4 SI MM NOT_NAMED 1886-04-06 15:00:00 NR -15.7805 55.2400 main 505 495 _____P________ -1 -15.7805 55.2400 99 4 228
1886091S12065 1886 4 SI MM NOT_NAMED 1886-04-06 18:00:00 NR -15.9201 55.0852 main 495 475 _____P________ -1 -15.9201 55.0852 99 4 226
1886091S12065 1886 4 SI MM NOT_NAMED 1886-04-06 21:00:00 NR -16.0634 54.9322 main 477 466 _____P________ -1 -16.0634 54.9322 99 4 225
1886091S12065 1886 4 SI MM NOT_NAMED 1886-04-07 00:00:00 NR -16.2088 54.7826 main 468 450 _____P________ -1 -16.2088 54.7826 99 4 224
1886091S12065 1886 4 SI MM NOT_NAMED 1886-04-07 03:00:00 NR -16.3549 54.6380 main 452 445 _____P________ -1 -16.3549 54.6380 99 4 223
1886091S12065 1886 4 SI MM NOT_NAMED 1886-04-07 06:00:00 NR -16.5000 54.5000 reunion main 445 434 _____O________ -1 -16.5000 54.5000 99 9.90000 4 224
1886091S12065 1886 4 SI MM NOT_NAMED 1886-04-07 09:00:00 NR -16.6221 54.3751 main 438 427 _____P________ -1 -16.6221 54.3751 99 3 224
1886091S12065 1886 4 SI MM NOT_NAMED 1886-04-07 12:00:00 NR -16.7423 54.2568 main 431 419 _____P________ -1 -16.7423 54.2568 99 3 222
1886091S12065 1886 4 SI MM NOT_NAMED 1886-04-07 15:00:00 NR -16.8638 54.1436 main 419 414 _____P________ -1 -16.8638 54.1436 99 3 221
1886091S12065 1886 4 SI MM NOT_NAMED 1886-04-07 18:00:00 NR -16.9897 54.0340 main 414 409 _____P________ -1 -16.9897 54.0340 99 3 219
1886091S12065 1886 4 SI MM NOT_NAMED 1886-04-07 21:00:00 NR -17.1232 53.9264 main 409 404 _____P________ -1 -17.1232 53.9264 99 3 216
1886091S12065 1886 4 SI MM NOT_NAMED 1886-04-08 00:00:00 NR -17.2673 53.8192 main 409 404 _____P________ -1 -17.2673 53.8192 99 4 214
1886091S12065 1886 4 SI MM NOT_NAMED 1886-04-08 03:00:00 NR -17.4252 53.7109 main 404 399 _____P________ -1 -17.4252 53.7109 99 4 212
1886091S12065 1886 4 SI MM NOT_NAMED 1886-04-08 06:00:00 NR -17.6000 53.6000 reunion main 403 399 _____O________ -1 -17.6000 53.6000 99 9.90000 4 214
1886091S12065 1886 4 SI MM NOT_NAMED 1886-04-08 09:00:00 NR -17.7814 53.4534 main 404 391 _____P________ -1 -17.7814 53.4534 99 5 217
1886091S12065 1886 4 SI MM NOT_NAMED 1886-04-08 12:00:00 NR -17.9772 53.3014 main 394 382 _____P________ -1 -17.9772 53.3014 99 5 215
1886091S12065 1886 4 SI MM NOT_NAMED 1886-04-08 15:00:00 NR -18.1884 53.1499 main 383 377 _____P________ -1 -18.1884 53.1499 99 5 213
1886091S12065 1886 4 SI MM NOT_NAMED 1886-04-08 18:00:00 NR -18.4155 53.0044 main 377 367 _____P________ -1 -18.4155 53.0044 99 5 209
1886091S12065 1886 4 SI MM NOT_NAMED 1886-04-08 21:00:00 NR -18.6594 52.8708 main 359 351 _____P________ -1 -18.6594 52.8708 99 6 205
1886091S12065 1886 4 SI MM NOT_NAMED 1886-04-09 00:00:00 NR -18.9210 52.7550 main 351 336 _____P________ -1 -18.9210 52.7550 99 6 200
1886091S12065 1886 4 SI MM NOT_NAMED 1886-04-09 03:00:00 NR -19.2009 52.6628 main 336 324 _____P________ -1 -19.2009 52.6628 99 6 194
1886091S12065 1886 4 SI MM NOT_NAMED 1886-04-09 06:00:00 NR -19.5000 52.6000 reunion main 324 307 _____O________ -1 -19.5000 52.6000 99 9.90000 6 189
1886091S12065 1886 4 SI MM NOT_NAMED 1886-04-09 09:00:00 NR -19.8252 52.5563 main 307 298 _____P________ -1 -19.8252 52.5563 99 7 185
1886091S12065 1886 4 SI MM NOT_NAMED 1886-04-09 12:00:00 NR -20.1728 52.5389 main 298 288 _____P________ -1 -20.1728 52.5389 99 7 0
1886091S12065 1886 4 SI MM NOT_NAMED 1886-04-09 15:00:00 NR -20.5368 52.5478 main 288 270 _____P________ -1 -20.5368 52.5478 99 7 176
1886091S12065 1886 4 SI MM NOT_NAMED 1886-04-09 18:00:00 NR -20.9115 52.5835 main 270 269 _____P________ -1 -20.9115 52.5835 99 8 174
1886091S12065 1886 4 SI MM NOT_NAMED 1886-04-09 21:00:00 NR -21.2910 52.6463 main 270 260 _____P________ -1 -21.2910 52.6463 99 8 169
1886091S12065 1886 4 SI MM NOT_NAMED 1886-04-10 00:00:00 NR -21.6695 52.7364 main 267 257 _____P________ -1 -21.6695 52.7364 99 8 166
1886091S12065 1886 4 SI MM NOT_NAMED 1886-04-10 03:00:00 NR -22.0411 52.8542 main 258 258 _____P________ -1 -22.0411 52.8542 99 8 162
1886091S12065 1886 4 SI MM NOT_NAMED 1886-04-10 06:00:00 NR -22.4000 53.0000 reunion main 267 263 _____O________ -1 -22.4000 53.0000 99 9.90000 8 157
1886091S12065 1886 4 SI MM NOT_NAMED 1886-04-10 09:00:00 NR -22.7467 53.1759 main 267 267 _____P________ -1 -22.7467 53.1759 99 8 153
1886091S12065 1886 4 SI MM NOT_NAMED 1886-04-10 12:00:00 NR -23.0856 53.3848 main 280 280 _____P________ -1 -23.0856 53.3848 99 8 149
1886091S12065 1886 4 SI MM NOT_NAMED 1886-04-10 15:00:00 NR -23.4139 53.6191 main 292 292 _____P________ -1 -23.4139 53.6191 99 8 145
1886091S12065 1886 4 SI MM NOT_NAMED 1886-04-10 18:00:00 NR -23.7288 53.8713 main 304 304 _____P________ -1 -23.7288 53.8713 99 8 142
1886091S12065 1886 4 SI MM NOT_NAMED 1886-04-10 21:00:00 NR -24.0276 54.1334 main 325 325 _____P________ -1 -24.0276 54.1334 99 8 140
1886091S12065 1886 4 SI MM NOT_NAMED 1886-04-11 00:00:00 NR -24.3075 54.3975 main 346 346 _____P________ -1 -24.3075 54.3975 99 7 138
1886091S12065 1886 4 SI MM NOT_NAMED 1886-04-11 03:00:00 NR -24.5659 54.6558 main 369 369 _____P________ -1 -24.5659 54.6558 99 7 137
1886091S12065 1886 4 SI MM NOT_NAMED 1886-04-11 06:00:00 NR -24.8000 54.9000 reunion main 386 384 _____O________ -1 -24.8000 54.9000 99 9.90000 6 136
1886091S12065 1886 4 SI MM NOT_NAMED 1886-04-11 09:00:00 NR -25.0084 55.1239 main 405 404 _____P________ -1 -25.0084 55.1239 99 6 135
1886091S12065 1886 4 SI MM NOT_NAMED 1886-04-11 12:00:00 NR -25.1933 55.3283 main 425 425 _____P________ -1 -25.1933 55.3283 99 5 135
1886091S12065 1886 4 SI MM NOT_NAMED 1886-04-11 15:00:00 NR -25.3583 55.5159 main 447 447 _____P________ -1 -25.3583 55.5159 99 5 134
1886091S12065 1886 4 SI MM NOT_NAMED 1886-04-11 18:00:00 NR -25.5067 55.6895 main 458 458 _____P________ -1 -25.5067 55.6895 99 4 133
1886091S12065 1886 4 SI MM NOT_NAMED 1886-04-11 21:00:00 NR -25.6417 55.8518 main 470 470 _____P________ -1 -25.6417 55.8518 99 4 132
1886091S12065 1886 4 SI MM NOT_NAMED 1886-04-12 00:00:00 NR -25.7667 56.0058 main 493 493 _____P________ -1 -25.7667 56.0058 99 4 132
1886091S12065 1886 4 SI MM NOT_NAMED 1886-04-12 03:00:00 NR -25.8851 56.1542 main 506 506 _____P________ -1 -25.8851 56.1542 99 4 131
1886091S12065 1886 4 SI MM NOT_NAMED 1886-04-12 06:00:00 NR -26.0000 56.3000 reunion main 519 _____O________ -1 -26.0000 56.3000 99 9.90000 3 132

IBTrACS Databaseについて

本データベースは、米国NOAAが公開する1842年以降の世界の熱帯低気圧のベストトラックデータアーカイブInternational Best Track Archive for Climate Stewardship (IBTrACS)を、ウェブで閲覧しやすい形式に変換したものです。

最終更新日:2021-10-21